Hurdland, MO (63547)

5:59 AM CDT en Noviembre 01, 2014 (GMT -0500)
La Plata | Change Station
CLOSE
Current Station
Estación meteorológica personal
Location: La Plata, MO
Altura: 928 ft
Estaciones meteorológicas cercanas
Aviso en curso: Freeze Warning

Alt 928 ft 40.03 °N, 92.48 °W | Updated 3 seconds ago

Despejado
Despejado
23.0 ° F
Sensación térmica 23 ° F
N
0.0
Viento Variable Viento desde Norte
Gusts 1.6 mph

Hoy
Alta -- | Baja -- ° F
--% Posibilidad de precipitaciones
Ayer
Alta -- | Baja -- ° F
Precip. -- pul
7:38 AM 6:06 PM
Gibosa creciente, 65% visible
Presión 30.51 pul
Visibilidad 10.0 Millas
Nubes Despejado
Vientos helados 23 ° F
Punto de rocío 16 ° F
Humedad 75%
Precipitaciones 0.00 pul
Espesor de la nieve No disponible.
UV 0 de una escala de 12
Polen .50 de una escala de 12
Calidad del aire No disponible.
Flu Activity No disponible.
METAR KIRK 011055Z AUTO 02003KT 10SM CLR M04/M07 A3047 RMK AO2 SLP330 T10391067

More Conditions Fewer Conditions

Presión 30.51 pul
Visibilidad 10.0 Millas
Nubes Despejado
Vientos helados 23 ° F
Punto de rocío 16 ° F
Humedad 75%
Precipitaciones 0.00 pul
Espesor de la nieve No disponible.
UV 0 de una escala de 12
Polen .50 de una escala de 12
Calidad del aire No disponible.
Flu Activity No disponible.
METAR KIRK 011055Z AUTO 02003KT 10SM CLR M04/M07 A3047 RMK AO2 SLP330 T10391067

More Conditions Fewer Conditions

10-Day Weather Forecast

Almanac

Astronomía

Nov. 01, 2014 Salida Puesta
Hora real
Crepúsculo civil
Crepúsculo náutico
Crepúsculo astronómico
Luna
Horas de luz
Horas de luz
Tomorrow will be .
, % of the Moon is Illuminated

Extremos de hoy

Máximos del estado Bajos del estado

Community

WunderPhotos

Upload Photos

1,766,875 ¡fotos cargadas!

WunderBlogs® & News

Nearby

Calidad del aire

  Calidad del aire Índice AQ Contaminante
Not available.

Grosos de nieve

Estación Profundido Altura

Actividad de terremotos

Ciudad Distance Mag. Tiempo y dato
Magnitud mínima muestra es 2,5.

Temperaturas de aguas costeras

Lugar Temperatura

Estaciones meteorológicas cercanas